createdAt,value
2023-02-08T00:01:18.093Z,7.20
2023-02-08T00:03:45.319Z,7.40
2023-02-08T00:06:13.233Z,8.60
2023-02-08T00:08:40.687Z,6.47
2023-02-08T00:11:10.646Z,9.07
2023-02-08T00:13:41.871Z,9.87
2023-02-08T00:16:09.222Z,8.83
2023-02-08T00:18:36.044Z,8.43
2023-02-08T00:21:12.536Z,6.90
2023-02-08T00:23:39.451Z,10.63
2023-02-08T00:26:06.800Z,8.47
2023-02-08T00:28:33.627Z,6.97
2023-02-08T00:31:00.522Z,7.70
2023-02-08T00:33:27.375Z,6.70
2023-02-08T00:36:02.555Z,9.47
2023-02-08T00:38:29.845Z,8.13
2023-02-08T00:40:56.825Z,6.47
2023-02-08T00:43:23.572Z,7.27
2023-02-08T00:45:58.416Z,6.33
2023-02-08T00:48:27.458Z,6.93
2023-02-08T00:51:13.446Z,7.57
2023-02-08T00:53:45.209Z,7.27
2023-02-08T00:56:14.757Z,5.57
2023-02-08T00:58:43.150Z,8.57
2023-02-08T01:01:10.596Z,6.83
2023-02-08T01:03:41.085Z,7.77
2023-02-08T01:06:13.267Z,7.70
2023-02-08T01:08:40.322Z,7.37
2023-02-08T01:11:18.418Z,6.27
2023-02-08T01:13:45.612Z,6.43
2023-02-08T01:16:19.209Z,4.40
2023-02-08T01:18:50.044Z,7.33
2023-02-08T01:21:21.659Z,6.80
2023-02-08T01:23:49.407Z,7.53
2023-02-08T01:26:18.216Z,7.33
2023-02-08T01:28:45.036Z,8.17
2023-02-08T01:31:21.049Z,8.87
2023-02-08T01:33:48.397Z,7.17
2023-02-08T01:36:17.025Z,7.33
2023-02-08T01:38:45.264Z,10.13
2023-02-08T01:41:28.337Z,6.60
2023-02-08T01:44:17.584Z,7.80
2023-02-08T01:46:48.706Z,9.00
2023-02-08T01:49:28.947Z,6.90
2023-02-08T01:52:18.132Z,8.83
2023-02-08T01:55:05.450Z,5.50
2023-02-08T01:57:32.452Z,6.97
2023-02-08T02:00:16.221Z,5.77
2023-02-08T02:02:45.964Z,4.87
2023-02-08T02:05:13.859Z,6.67
2023-02-08T02:07:41.408Z,6.17
2023-02-08T02:10:16.274Z,7.77
2023-02-08T02:12:44.678Z,8.90
2023-02-08T02:15:11.699Z,8.00
2023-02-08T02:17:40.177Z,7.63
2023-02-08T02:20:42.573Z,6.97
2023-02-08T02:23:24.388Z,6.67
2023-02-08T02:26:16.851Z,7.60
2023-02-08T02:29:31.571Z,9.50
2023-02-08T02:32:21.627Z,6.00
2023-02-08T02:35:07.658Z,9.13
2023-02-08T02:38:11.344Z,6.10
2023-02-08T02:41:03.013Z,7.93
2023-02-08T02:43:55.242Z,5.57
2023-02-08T02:46:30.474Z,6.33
2023-02-08T02:49:26.679Z,5.93
2023-02-08T02:52:18.598Z,7.33
2023-02-08T02:54:54.146Z,8.73
2023-02-08T02:57:29.982Z,10.00
2023-02-08T02:59:58.833Z,9.67
2023-02-08T03:02:28.185Z,10.10
2023-02-08T03:04:57.269Z,8.13
2023-02-08T03:07:49.128Z,7.87
2023-02-08T03:10:58.583Z,5.20
2023-02-08T03:14:04.853Z,6.13
2023-02-08T03:17:11.075Z,8.47
2023-02-08T03:20:13.963Z,9.17
2023-02-08T03:22:58.413Z,6.43
2023-02-08T03:25:47.795Z,11.67
2023-02-08T03:28:53.841Z,7.93
2023-02-08T03:31:45.802Z,8.10
2023-02-08T03:34:29.963Z,5.97
2023-02-08T03:37:10.896Z,10.83
2023-02-08T03:39:40.787Z,7.80
2023-02-08T03:42:19.350Z,8.43
2023-02-08T03:45:00.644Z,10.13
2023-02-08T03:47:35.219Z,7.20
2023-02-08T03:50:08.544Z,6.50
2023-02-08T03:52:37.234Z,5.90
2023-02-08T03:55:13.272Z,7.47
2023-02-08T03:57:57.905Z,6.53
2023-02-08T04:00:25.589Z,9.20
2023-02-08T04:03:02.143Z,7.83
2023-02-08T04:05:29.688Z,9.07
2023-02-08T04:07:56.478Z,8.43
2023-02-08T04:10:23.424Z,6.10
2023-02-08T04:12:50.434Z,7.27
2023-02-08T04:15:17.907Z,9.93
2023-02-08T04:17:44.915Z,7.20
2023-02-08T04:20:12.180Z,7.70
2023-02-08T04:22:39.182Z,8.27
2023-02-08T04:25:06.424Z,7.53
2023-02-08T04:27:33.209Z,7.57
2023-02-08T04:30:00.013Z,8.93
2023-02-08T04:32:26.772Z,7.87
2023-02-08T04:34:53.557Z,5.17
2023-02-08T04:37:20.307Z,7.17
2023-02-08T04:39:47.096Z,7.00
2023-02-08T04:42:13.842Z,8.50
2023-02-08T04:44:40.722Z,7.07
2023-02-08T04:47:07.592Z,5.30
2023-02-08T04:49:34.557Z,4.57
2023-02-08T04:52:01.448Z,6.67
2023-02-08T04:54:28.364Z,7.83
2023-02-08T04:56:55.550Z,5.40
2023-02-08T04:59:22.445Z,8.13
2023-02-08T05:01:49.232Z,5.13
2023-02-08T05:04:16.058Z,6.00
2023-02-08T05:06:42.782Z,6.03
2023-02-08T05:09:10.234Z,9.43
2023-02-08T05:11:37.411Z,6.13
2023-02-08T05:14:04.799Z,12.10
2023-02-08T05:16:31.900Z,6.17
2023-02-08T05:18:58.682Z,7.03
2023-02-08T05:21:25.571Z,7.63
2023-02-08T05:23:52.499Z,8.53
2023-02-08T05:26:19.430Z,5.93
2023-02-08T05:28:46.625Z,5.77
2023-02-08T05:31:18.682Z,7.03
2023-02-08T05:33:45.518Z,7.23
2023-02-08T05:36:12.589Z,8.23
2023-02-08T05:38:39.344Z,7.63
2023-02-08T05:41:06.304Z,6.63
2023-02-08T05:43:33.213Z,5.47
2023-02-08T05:45:59.993Z,7.03
2023-02-08T05:48:27.007Z,11.70
2023-02-08T05:50:54.129Z,14.17
2023-02-08T05:53:20.889Z,6.70
2023-02-08T05:55:48.634Z,9.20
2023-02-08T05:58:16.878Z,8.53
2023-02-08T06:00:44.151Z,6.93
2023-02-08T06:03:11.302Z,8.00
2023-02-08T06:05:40.229Z,6.80
2023-02-08T06:08:07.590Z,11.00
2023-02-08T06:10:34.852Z,7.73
2023-02-08T06:13:02.279Z,6.77
2023-02-08T06:15:29.102Z,10.70
2023-02-08T06:17:55.956Z,7.00
2023-02-08T06:20:23.090Z,11.27
2023-02-08T06:22:49.817Z,9.63
2023-02-08T06:25:16.652Z,6.07
2023-02-08T06:27:43.352Z,11.50
2023-02-08T06:30:11.241Z,6.97
2023-02-08T06:32:39.238Z,9.83
2023-02-08T06:35:06.658Z,7.63
2023-02-08T06:37:33.453Z,6.90
2023-02-08T06:40:01.849Z,12.17
2023-02-08T06:42:29.048Z,7.20
2023-02-08T06:44:57.879Z,7.93
2023-02-08T06:47:26.871Z,7.13
2023-02-08T06:49:53.884Z,5.87
2023-02-08T06:52:21.517Z,9.27
2023-02-08T06:54:48.985Z,7.23
2023-02-08T06:57:16.672Z,9.33
2023-02-08T06:59:46.670Z,9.90
2023-02-08T07:02:19.872Z,7.90
2023-02-08T07:04:47.549Z,9.03
2023-02-08T07:07:16.927Z,12.80
2023-02-08T07:09:44.282Z,10.97
2023-02-08T07:12:12.093Z,8.73
2023-02-08T07:14:43.940Z,14.23
2023-02-08T07:17:13.182Z,12.67
2023-02-08T07:19:40.757Z,10.60
2023-02-08T07:22:08.461Z,8.40
2023-02-08T07:24:40.459Z,8.50
2023-02-08T07:27:11.531Z,8.10
2023-02-08T07:29:39.733Z,11.17
2023-02-08T07:32:08.108Z,9.83
2023-02-08T07:34:38.406Z,11.53
2023-02-08T07:37:05.531Z,17.87
2023-02-08T07:39:32.742Z,8.73
2023-02-08T07:42:00.330Z,13.07
2023-02-08T07:44:27.581Z,6.97
2023-02-08T07:46:54.710Z,11.47
2023-02-08T07:49:21.881Z,11.30
2023-02-08T07:51:49.165Z,11.10
2023-02-08T07:54:16.677Z,7.83
2023-02-08T07:56:43.729Z,14.33
2023-02-08T07:59:11.755Z,8.63
2023-02-08T08:01:38.787Z,10.53
2023-02-08T08:04:06.220Z,8.97
2023-02-08T08:06:33.255Z,8.00
2023-02-08T08:09:00.925Z,6.67
2023-02-08T08:11:28.035Z,7.23
2023-02-08T08:13:55.246Z,9.00
2023-02-08T08:16:22.710Z,10.60
2023-02-08T08:18:50.932Z,8.23
2023-02-08T08:21:18.171Z,9.20
2023-02-08T08:23:45.416Z,14.63
2023-02-08T08:26:20.100Z,10.13
2023-02-08T08:28:48.481Z,8.87
2023-02-08T08:31:22.376Z,9.80
2023-02-08T08:33:49.809Z,12.40
2023-02-08T08:36:17.147Z,10.73
2023-02-08T08:38:44.327Z,9.33
2023-02-08T08:41:15.180Z,11.63
2023-02-08T08:43:42.129Z,8.17
2023-02-08T08:46:10.289Z,10.67
2023-02-08T08:48:38.864Z,9.70
2023-02-08T08:51:06.739Z,10.23
2023-02-08T08:53:34.554Z,8.67
2023-02-08T08:56:01.528Z,9.97
2023-02-08T08:58:28.542Z,7.77
2023-02-08T09:01:00.041Z,7.70
2023-02-08T09:03:28.596Z,11.30
2023-02-08T09:05:56.392Z,9.63
2023-02-08T09:08:23.249Z,11.30
2023-02-08T09:10:50.504Z,9.97
2023-02-08T09:13:19.849Z,12.27
2023-02-08T09:15:48.643Z,11.23
2023-02-08T09:18:16.070Z,13.17
2023-02-08T09:20:43.418Z,12.27
2023-02-08T09:23:10.533Z,9.00
2023-02-08T09:25:37.830Z,11.67
2023-02-08T09:28:04.920Z,11.63
2023-02-08T09:30:32.629Z,12.90
2023-02-08T09:32:59.418Z,14.40
2023-02-08T09:35:26.308Z,10.13
2023-02-08T09:37:57.768Z,9.77
2023-02-08T09:40:41.899Z,8.67
2023-02-08T09:43:30.569Z,8.17
2023-02-08T09:46:19.138Z,9.77
2023-02-08T09:48:49.452Z,10.83
2023-02-08T09:51:37.325Z,12.20
2023-02-08T09:54:23.036Z,10.17
2023-02-08T09:56:52.450Z,7.83
2023-02-08T09:59:29.408Z,8.97
2023-02-08T10:02:11.272Z,8.77
2023-02-08T10:05:03.134Z,6.87
2023-02-08T10:07:32.416Z,8.20
2023-02-08T10:10:11.818Z,7.87
2023-02-08T10:12:53.023Z,9.60
2023-02-08T10:15:40.854Z,10.00
2023-02-08T10:18:46.050Z,10.57
2023-02-08T10:21:57.184Z,8.07
2023-02-08T10:25:05.049Z,10.27
2023-02-08T10:27:49.555Z,11.87
2023-02-08T10:30:40.747Z,9.63
2023-02-08T10:33:22.349Z,9.67
2023-02-08T10:35:50.747Z,8.43
2023-02-08T10:38:20.266Z,7.60
2023-02-08T10:40:55.462Z,7.20
2023-02-08T10:43:35.359Z,7.70
2023-02-08T10:46:33.524Z,7.43
2023-02-08T10:49:40.867Z,8.07
2023-02-08T10:52:07.849Z,10.93
2023-02-08T10:54:35.426Z,16.13
2023-02-08T10:57:17.710Z,9.57
2023-02-08T11:00:09.652Z,11.07
2023-02-08T11:02:42.492Z,8.53
2023-02-08T11:05:35.988Z,9.57
2023-02-08T11:08:10.814Z,7.33
2023-02-08T11:10:40.439Z,8.83
2023-02-08T11:13:19.370Z,8.70
2023-02-08T11:15:58.924Z,9.60
2023-02-08T11:18:32.514Z,8.27
2023-02-08T11:21:08.176Z,12.77
2023-02-08T11:23:41.592Z,9.67
2023-02-08T11:26:31.313Z,7.03
2023-02-08T11:29:23.178Z,7.93
2023-02-08T11:31:56.576Z,8.17
2023-02-08T11:34:39.166Z,8.20
2023-02-08T11:37:19.468Z,7.37
2023-02-08T11:39:51.706Z,10.90
2023-02-08T11:42:30.150Z,10.03
2023-02-08T11:44:59.827Z,10.47
2023-02-08T11:47:31.365Z,7.23
2023-02-08T11:50:05.626Z,8.47
2023-02-08T11:52:39.161Z,9.57
2023-02-08T11:55:25.169Z,8.03
2023-02-08T11:58:19.189Z,13.17
2023-02-08T12:01:04.856Z,7.80
2023-02-08T12:03:41.082Z,9.33
2023-02-08T12:06:40.813Z,10.43
2023-02-08T12:10:12.935Z,13.53
2023-02-08T12:13:01.087Z,10.77
2023-02-08T12:16:20.137Z,8.37
2023-02-08T12:18:57.828Z,9.30
2023-02-08T12:21:45.272Z,12.37
2023-02-08T12:24:44.742Z,7.17
2023-02-08T12:27:59.542Z,8.73
2023-02-08T12:30:43.011Z,7.27
2023-02-08T12:33:36.832Z,9.07
2023-02-08T12:36:29.869Z,7.43
2023-02-08T12:40:01.937Z,6.47
2023-02-08T12:43:08.304Z,9.77
2023-02-08T12:45:47.221Z,8.20
2023-02-08T12:48:37.736Z,8.73
2023-02-08T12:51:20.544Z,8.03
2023-02-08T12:53:57.710Z,10.47
2023-02-08T12:56:37.260Z,7.33
2023-02-08T12:59:13.822Z,7.47
2023-02-08T13:01:53.879Z,5.57
2023-02-08T13:04:39.885Z,7.50
2023-02-08T13:07:21.974Z,7.13
2023-02-08T13:10:39.608Z,7.57
2023-02-08T13:13:21.739Z,7.77
2023-02-08T13:16:03.052Z,6.80
2023-02-08T13:18:45.388Z,7.87
2023-02-08T13:21:20.477Z,5.80
2023-02-08T13:23:53.145Z,7.07
2023-02-08T13:26:31.721Z,7.30
2023-02-08T13:29:02.602Z,7.90
2023-02-08T13:31:38.889Z,6.07
2023-02-08T13:34:38.955Z,5.33
2023-02-08T13:37:31.467Z,4.47
2023-02-08T13:40:28.111Z,5.87
2023-02-08T13:43:35.651Z,5.00
2023-02-08T13:46:05.864Z,6.27
2023-02-08T13:49:02.107Z,8.47
2023-02-08T13:51:31.586Z,6.00
2023-02-08T13:54:01.149Z,5.10
2023-02-08T13:56:51.284Z,4.50
2023-02-08T13:59:41.742Z,5.70
2023-02-08T14:02:19.927Z,7.47
2023-02-08T14:04:51.003Z,4.57
2023-02-08T14:07:46.236Z,6.57
2023-02-08T14:10:46.558Z,4.97
2023-02-08T14:13:28.968Z,4.67
2023-02-08T14:16:24.038Z,6.33
2023-02-08T14:18:58.183Z,5.23
2023-02-08T14:21:36.344Z,5.30
2023-02-08T14:24:08.852Z,4.57
2023-02-08T14:26:37.281Z,4.77
2023-02-08T14:29:06.741Z,5.13
2023-02-08T14:31:41.017Z,4.67
2023-02-08T14:34:34.780Z,3.60
2023-02-08T14:37:10.852Z,4.00
2023-02-08T14:39:38.024Z,6.10
2023-02-08T14:42:09.469Z,5.63
2023-02-08T14:44:39.176Z,3.97
2023-02-08T14:47:38.428Z,6.83
2023-02-08T14:50:17.288Z,4.70
2023-02-08T14:52:57.709Z,5.37
2023-02-08T14:55:34.004Z,4.97
2023-02-08T14:58:02.661Z,4.70
2023-02-08T15:00:36.260Z,5.50
2023-02-08T15:03:11.644Z,6.27
2023-02-08T15:05:57.334Z,4.43
2023-02-08T15:08:24.955Z,4.47
2023-02-08T15:10:51.820Z,4.23
2023-02-08T15:13:25.200Z,7.27
2023-02-08T15:15:57.318Z,4.43
2023-02-08T15:18:30.937Z,7.03
2023-02-08T15:21:17.640Z,4.93
2023-02-08T15:24:14.263Z,4.50
2023-02-08T15:26:55.657Z,5.70
2023-02-08T15:29:39.056Z,3.77
2023-02-08T15:32:18.256Z,5.97
2023-02-08T15:34:53.128Z,4.73
2023-02-08T15:37:21.160Z,4.00
2023-02-08T15:39:57.485Z,5.57
2023-02-08T15:42:28.956Z,7.27
2023-02-08T15:44:56.401Z,5.67
2023-02-08T15:47:31.870Z,5.40
2023-02-08T15:50:00.318Z,6.90
2023-02-08T15:52:32.559Z,5.17
2023-02-08T15:54:59.320Z,5.67
2023-02-08T15:57:28.936Z,6.30
2023-02-08T15:59:56.619Z,5.10
2023-02-08T16:02:33.933Z,7.47
2023-02-08T16:05:10.508Z,5.53
2023-02-08T16:07:40.982Z,5.87
2023-02-08T16:10:10.018Z,5.40
2023-02-08T16:12:36.917Z,5.83
2023-02-08T16:15:04.189Z,7.67
2023-02-08T16:17:46.129Z,7.67
2023-02-08T16:20:35.637Z,12.17
2023-02-08T16:23:23.312Z,6.57
2023-02-08T16:25:51.059Z,7.27
2023-02-08T16:28:39.217Z,11.27
2023-02-08T16:31:07.898Z,7.73
2023-02-08T16:33:37.297Z,6.03
2023-02-08T16:36:04.396Z,5.50
2023-02-08T16:38:34.153Z,7.00
2023-02-08T16:41:12.623Z,9.83
2023-02-08T16:43:44.059Z,6.27
2023-02-08T16:46:11.028Z,6.27
2023-02-08T16:48:40.800Z,12.50
2023-02-08T16:51:18.784Z,7.27
2023-02-08T16:53:47.597Z,6.77
2023-02-08T16:56:14.991Z,5.57
2023-02-08T16:58:41.816Z,9.13
2023-02-08T17:01:13.808Z,8.70
2023-02-08T17:03:41.721Z,10.97
2023-02-08T17:06:28.446Z,9.17
2023-02-08T17:08:56.202Z,13.00
2023-02-08T17:11:23.404Z,8.57
2023-02-08T17:13:52.209Z,10.70
2023-02-08T17:16:23.406Z,9.60
2023-02-08T17:18:51.270Z,9.63
2023-02-08T17:21:18.810Z,10.37
2023-02-08T17:23:46.966Z,9.93
2023-02-08T17:26:22.951Z,14.50
2023-02-08T17:28:50.386Z,14.77
2023-02-08T17:31:17.461Z,8.47
2023-02-08T17:33:44.854Z,9.67
2023-02-08T17:36:14.530Z,10.93
2023-02-08T17:38:43.707Z,11.27
2023-02-08T17:41:19.296Z,10.90
2023-02-08T17:43:51.231Z,11.50
2023-02-08T17:46:25.318Z,10.40
2023-02-08T17:48:52.581Z,33.03
2023-02-08T17:51:23.248Z,18.00
2023-02-08T17:53:50.824Z,14.03
2023-02-08T17:56:22.110Z,10.30
2023-02-08T17:58:53.589Z,13.37
2023-02-08T18:01:25.329Z,80.30
2023-02-08T18:03:53.405Z,57.40
2023-02-08T18:06:20.825Z,26.30
2023-02-08T18:08:47.552Z,28.17
2023-02-08T18:11:19.645Z,13.33
2023-02-08T18:13:48.387Z,15.47
2023-02-08T18:16:23.866Z,18.53
2023-02-08T18:18:51.142Z,13.83
2023-02-08T18:21:21.311Z,16.73
2023-02-08T18:23:49.500Z,12.37
2023-02-08T18:26:21.117Z,17.17
2023-02-08T18:28:48.528Z,11.57
2023-02-08T18:31:19.957Z,17.13
2023-02-08T18:33:49.609Z,18.13
2023-02-08T18:36:16.881Z,20.83
2023-02-08T18:38:46.334Z,13.10
2023-02-08T18:41:24.007Z,17.87
2023-02-08T18:43:51.695Z,19.47
2023-02-08T18:46:21.498Z,23.17
2023-02-08T18:48:50.424Z,14.63
2023-02-08T18:51:19.841Z,22.53
2023-02-08T18:53:50.864Z,16.73
2023-02-08T18:56:23.456Z,19.37
2023-02-08T18:58:52.031Z,12.63
2023-02-08T19:01:22.694Z,16.80
2023-02-08T19:03:50.332Z,14.83
2023-02-08T19:06:24.345Z,18.70
2023-02-08T19:08:56.458Z,13.17
2023-02-08T19:11:26.605Z,13.30
2023-02-08T19:13:57.539Z,13.50
2023-02-08T19:16:25.525Z,18.53
2023-02-08T19:18:56.381Z,13.93
2023-02-08T19:21:23.929Z,14.93
2023-02-08T19:23:52.964Z,10.97
2023-02-08T19:26:26.191Z,13.80
2023-02-08T19:28:57.673Z,11.20
2023-02-08T19:31:26.362Z,10.63
2023-02-08T19:33:58.552Z,13.20
2023-02-08T19:36:52.014Z,9.10
2023-02-08T19:39:26.475Z,10.37
2023-02-08T19:41:54.091Z,9.63
2023-02-08T19:44:21.735Z,15.17
2023-02-08T19:46:55.027Z,11.97
2023-02-08T19:49:25.369Z,9.67
2023-02-08T19:51:52.129Z,9.00
2023-02-08T19:54:19.990Z,10.30
2023-02-08T19:56:47.356Z,9.83
2023-02-08T19:59:25.317Z,8.40
2023-02-08T20:01:53.084Z,11.03
2023-02-08T20:04:21.410Z,8.60
2023-02-08T20:06:52.783Z,8.20
2023-02-08T20:09:19.862Z,9.23
2023-02-08T20:12:02.261Z,5.73
2023-02-08T20:14:32.740Z,6.00
2023-02-08T20:17:01.569Z,5.57
2023-02-08T20:19:29.150Z,4.73
2023-02-08T20:21:56.058Z,7.37
2023-02-08T20:24:22.811Z,6.00
2023-02-08T20:26:50.654Z,8.80
2023-02-08T20:29:18.287Z,6.10
2023-02-08T20:31:48.855Z,4.77
2023-02-08T20:34:18.599Z,5.33
2023-02-08T20:37:05.327Z,6.27
2023-02-08T20:39:34.991Z,5.13
2023-02-08T20:42:01.764Z,5.50
2023-02-08T20:44:28.741Z,5.23
2023-02-08T20:46:55.597Z,5.13
2023-02-08T20:49:25.441Z,4.93
2023-02-08T20:51:54.460Z,4.87
2023-02-08T20:54:24.288Z,6.33
2023-02-08T20:56:53.012Z,3.60
2023-02-08T20:59:20.049Z,5.60
2023-02-08T21:01:47.072Z,4.17
2023-02-08T21:04:14.124Z,8.93
2023-02-08T21:06:44.562Z,7.73
2023-02-08T21:09:15.864Z,5.53
2023-02-08T21:11:43.601Z,4.57
2023-02-08T21:14:18.783Z,5.23
2023-02-08T21:16:48.403Z,6.80
2023-02-08T21:19:15.695Z,5.40
2023-02-08T21:21:43.306Z,7.10
2023-02-08T21:24:11.217Z,5.57
2023-02-08T21:26:37.997Z,4.90
2023-02-08T21:29:06.314Z,6.60
2023-02-08T21:31:36.447Z,7.40
2023-02-08T21:34:05.742Z,8.90
2023-02-08T21:36:33.293Z,8.70
2023-02-08T21:39:00.405Z,6.50
2023-02-08T21:41:30.995Z,6.73
2023-02-08T21:44:00.958Z,5.93
2023-02-08T21:46:28.401Z,5.57
2023-02-08T21:49:29.713Z,8.87
2023-02-08T21:52:15.102Z,5.40
2023-02-08T21:54:41.952Z,9.40
2023-02-08T21:57:27.938Z,8.30
2023-02-08T21:59:58.947Z,8.80
2023-02-08T22:02:29.965Z,7.63
2023-02-08T22:05:00.080Z,8.13
2023-02-08T22:07:28.383Z,9.73
2023-02-08T22:09:55.692Z,7.93
2023-02-08T22:12:23.662Z,7.90
2023-02-08T22:14:50.915Z,9.53
2023-02-08T22:17:18.108Z,9.07
2023-02-08T22:19:44.905Z,10.13
2023-02-08T22:22:12.334Z,9.67
2023-02-08T22:24:39.156Z,6.73
2023-02-08T22:27:05.951Z,10.47
2023-02-08T22:29:33.467Z,8.47
2023-02-08T22:32:01.070Z,7.93
2023-02-08T22:34:28.660Z,6.87
2023-02-08T22:36:55.448Z,6.53
2023-02-08T22:39:22.289Z,9.70
2023-02-08T22:41:49.468Z,8.00
2023-02-08T22:44:16.403Z,10.07
2023-02-08T22:46:43.162Z,10.73
2023-02-08T22:49:09.949Z,10.00
2023-02-08T22:51:37.480Z,9.83
2023-02-08T22:54:04.451Z,20.63
2023-02-08T22:56:31.474Z,10.37
2023-02-08T22:59:00.262Z,14.63
2023-02-08T23:01:27.479Z,14.40
2023-02-08T23:03:54.239Z,12.10
2023-02-08T23:06:20.982Z,16.47
2023-02-08T23:08:48.171Z,16.57
2023-02-08T23:11:15.670Z,12.90
2023-02-08T23:13:42.449Z,17.83
2023-02-08T23:16:16.943Z,16.83
2023-02-08T23:18:44.223Z,18.17
2023-02-08T23:21:16.489Z,18.07
2023-02-08T23:23:45.504Z,21.07
2023-02-08T23:26:17.310Z,19.27
2023-02-08T23:28:45.324Z,18.20
2023-02-08T23:31:15.128Z,18.47
2023-02-08T23:33:42.581Z,15.17
2023-02-08T23:36:13.886Z,14.13
2023-02-08T23:38:43.590Z,15.27
2023-02-08T23:41:14.904Z,13.27
2023-02-08T23:43:42.480Z,9.77
2023-02-08T23:46:14.799Z,11.83
2023-02-08T23:48:43.000Z,11.13
2023-02-08T23:51:10.294Z,10.57
2023-02-08T23:53:37.833Z,7.20
2023-02-08T23:56:22.629Z,13.87
2023-02-08T23:58:53.442Z,10.03
